Time;durP1;ratioP1;P1;durP2;ratioP2;P2;SDS_P1;SDS_P2;PMS_P1;PMS_P2;Temp;Humidity;BMP_temperature;BMP_pressure;BME280_temperature;BME280_humidity;BME280_pressure;Samples;Min_cycle;Max_cycle;Signal;HPM_P1;HPM_P2
2023/06/11 00:01:17;;;;;;;13.85;6.15;;;19.10;99.90;;;;;;5114450;28;20489;-77
2023/06/11 00:03:46;;;;;;;10.68;4.93;;;19.10;99.90;;;;;;5110120;28;20103;-79
2023/06/11 00:06:17;;;;;;;10.93;5.65;;;19.10;99.90;;;;;;5097208;28;20509;-78
2023/06/11 00:08:47;;;;;;;17.67;5.65;;;19.20;99.90;;;;;;5100756;28;20083;-77
2023/06/11 00:11:13;;;;;;;9.63;5.38;;;19.20;99.90;;;;;;5097021;28;20062;-78
2023/06/11 00:13:38;;;;;;;15.02;5.65;;;19.20;99.90;;;;;;5093939;28;20087;-76
2023/06/11 00:16:05;;;;;;;13.52;5.53;;;19.20;99.90;;;;;;5103343;28;20398;-78
2023/06/11 00:18:30;;;;;;;12.27;5.72;;;19.10;99.90;;;;;;5102021;28;20067;-78
2023/06/11 00:20:58;;;;;;;14.07;5.60;;;19.10;99.90;;;;;;5085989;28;20126;-77
2023/06/11 00:23:24;;;;;;;9.70;5.20;;;19.10;99.90;;;;;;5109600;28;20039;-78
2023/06/11 00:25:52;;;;;;;17.50;5.65;;;19.10;99.90;;;;;;5079111;28;20044;-77
2023/06/11 00:28:18;;;;;;;13.82;5.95;;;19.10;99.90;;;;;;5095397;28;20051;-78
2023/06/11 00:30:44;;;;;;;10.70;5.50;;;19.10;99.90;;;;;;5122452;27;20493;-79
2023/06/11 00:33:10;;;;;;;19.40;6.18;;;19.00;99.90;;;;;;5104422;28;20062;-78
2023/06/11 00:35:36;;;;;;;13.93;6.28;;;19.00;99.90;;;;;;5074030;28;20054;-78
2023/06/11 00:38:02;;;;;;;9.93;5.68;;;19.00;99.90;;;;;;5102445;28;20039;-77
2023/06/11 00:40:27;;;;;;;9.93;5.70;;;19.00;99.90;;;;;;5130117;27;20038;-77
2023/06/11 00:42:54;;;;;;;14.27;6.00;;;18.90;99.90;;;;;;5112131;27;20467;-78
2023/06/11 00:45:22;;;;;;;12.00;5.72;;;18.90;99.90;;;;;;5112010;27;20043;-78
2023/06/11 00:47:48;;;;;;;;;;;18.90;99.90;;;;;;5116742;28;20051;-77
2023/06/11 00:50:15;;;;;;;12.88;6.43;;;18.90;99.90;;;;;;5106068;28;19943;-77
2023/06/11 00:52:41;;;;;;;13.33;6.07;;;18.80;99.90;;;;;;5104460;27;20549;-77
2023/06/11 00:55:08;;;;;;;9.98;6.22;;;18.80;99.90;;;;;;5108319;28;20036;-77
2023/06/11 00:57:35;;;;;;;13.15;5.82;;;18.80;99.90;;;;;;5115386;27;20062;-77
2023/06/11 01:00:01;;;;;;;14.23;6.35;;;18.70;99.90;;;;;;5098788;28;20079;-77
2023/06/11 01:02:36;;;;;;;10.98;6.45;;;18.70;99.90;;;;;;5096335;28;20043;-78
2023/06/11 01:05:07;;;;;;;14.57;6.22;;;18.70;99.90;;;;;;5113999;28;20404;-78
2023/06/11 01:07:35;;;;;;;11.05;6.15;;;18.70;99.90;;;;;;5117322;28;20112;-77
2023/06/11 01:10:02;;;;;;;10.45;6.20;;;18.60;99.90;;;;;;5110116;28;20474;-76
2023/06/11 01:12:28;;;;;;;11.80;6.10;;;18.60;99.90;;;;;;5111072;27;20071;-77
2023/06/11 01:14:54;;;;;;;17.08;7.63;;;18.50;99.90;;;;;;5101995;28;20351;-77
2023/06/11 01:17:29;;;;;;;13.88;6.85;;;18.50;99.90;;;;;;5098551;28;20040;-77
2023/06/11 01:20:08;;;;;;;12.00;6.82;;;18.50;99.90;;;;;;5111053;28;20401;-77
2023/06/11 01:22:42;;;;;;;16.92;7.18;;;18.50;99.90;;;;;;5113756;28;20115;-77
2023/06/11 01:25:22;;;;;;;16.75;7.03;;;18.50;99.90;;;;;;5098776;28;20066;-77
2023/06/11 01:28:04;;;;;;;15.02;6.70;;;18.50;99.90;;;;;;5095784;28;20047;-76
2023/06/11 01:30:33;;;;;;;15.07;7.63;;;18.40;99.90;;;;;;5089796;28;20086;-78
2023/06/11 01:33:01;;;;;;;9.50;6.20;;;18.40;99.90;;;;;;5098565;28;20043;-77
2023/06/11 01:35:30;;;;;;;12.25;6.95;;;18.40;99.90;;;;;;5105237;28;20448;-77
2023/06/11 01:37:55;;;;;;;12.68;6.75;;;18.40;99.90;;;;;;5107547;28;20081;-77
2023/06/11 01:40:25;;;;;;;11.88;6.32;;;18.40;99.90;;;;;;5105222;28;20098;-78
2023/06/11 01:42:52;;;;;;;18.50;7.20;;;18.40;99.90;;;;;;5114053;28;20044;-77
2023/06/11 01:45:18;;;;;;;12.65;7.10;;;18.40;99.90;;;;;;5092918;28;20051;-77
2023/06/11 01:47:49;;;;;;;16.60;6.97;;;18.40;99.90;;;;;;5116349;28;20401;-78
2023/06/11 01:50:15;;;;;;;13.95;6.90;;;18.30;99.90;;;;;;5110998;28;20063;-78
2023/06/11 01:52:41;;;;;;;11.93;7.30;;;18.30;99.90;;;;;;5085298;28;20040;-78
2023/06/11 01:55:08;;;;;;;15.05;7.97;;;18.30;99.90;;;;;;5113398;28;20046;-78
2023/06/11 01:57:34;;;;;;;15.40;7.50;;;18.30;99.90;;;;;;5093248;28;20118;-78
2023/06/11 02:00:00;;;;;;;12.02;7.35;;;18.30;99.90;;;;;;5095331;28;20040;-77
2023/06/11 02:02:27;;;;;;;11.82;8.15;;;18.20;99.90;;;;;;5125301;28;20477;-78
2023/06/11 02:04:53;;;;;;;11.93;8.05;;;18.20;99.90;;;;;;5109163;28;20039;-78
2023/06/11 02:07:19;;;;;;;14.15;7.68;;;18.10;99.90;;;;;;5106465;28;20043;-76
2023/06/11 02:09:45;;;;;;;11.02;7.35;;;18.10;99.90;;;;;;5101247;28;20118;-78
2023/06/11 02:12:11;;;;;;;13.55;7.97;;;18.10;99.90;;;;;;5105935;28;20463;-78
2023/06/11 02:14:36;;;;;;;13.43;7.57;;;18.00;99.90;;;;;;5080112;28;20032;-77
2023/06/11 02:17:02;;;;;;;11.45;7.70;;;18.00;99.90;;;;;;5109272;28;20089;-77
2023/06/11 02:19:28;;;;;;;11.52;8.60;;;18.00;99.90;;;;;;5095951;28;20511;-78
2023/06/11 02:21:53;;;;;;;9.93;7.63;;;18.00;99.90;;;;;;5100893;28;20076;-77
2023/06/11 02:24:19;;;;;;;10.93;7.47;;;18.00;99.90;;;;;;5098531;28;20035;-78
2023/06/11 02:26:45;;;;;;;11.38;7.68;;;17.90;99.90;;;;;;5112407;28;20058;-78
2023/06/11 02:29:10;;;;;;;11.80;8.35;;;17.90;99.90;;;;;;5093639;28;20042;-78
2023/06/11 02:31:36;;;;;;;14.15;8.00;;;17.90;99.90;;;;;;5116471;27;20036;-77
2023/06/11 02:34:01;;;;;;;15.63;8.27;;;18.10;99.90;;;;;;5093900;28;20032;-77
2023/06/11 02:36:27;;;;;;;12.52;8.25;;;17.80;99.90;;;;;;5096720;28;20040;-78
2023/06/11 02:38:53;;;;;;;11.02;7.63;;;17.80;99.90;;;;;;5098280;28;20040;-77
2023/06/11 02:41:18;;;;;;;14.90;8.20;;;17.80;99.90;;;;;;5096836;28;20131;-79
2023/06/11 02:43:44;;;;;;;14.20;8.65;;;17.70;99.90;;;;;;5068858;28;20131;-78
2023/06/11 02:46:09;;;;;;;10.00;7.70;;;17.70;99.90;;;;;;5110463;28;20040;-78
2023/06/11 02:48:35;;;;;;;16.00;9.13;;;17.60;99.90;;;;;;5095859;28;20123;-76
2023/06/11 02:51:01;;;;;;;15.50;8.95;;;17.60;99.90;;;;;;5131638;27;20100;-78
2023/06/11 02:53:26;;;;;;;13.63;8.55;;;17.60;99.90;;;;;;5083912;28;20409;-78
2023/06/11 02:55:52;;;;;;;13.10;8.35;;;17.50;99.90;;;;;;5112010;27;20048;-77
2023/06/11 02:58:17;;;;;;;11.35;8.48;;;17.60;99.90;;;;;;5079675;28;20047;-77
2023/06/11 03:00:44;;;;;;;13.38;8.05;;;17.60;99.90;;;;;;5106837;28;20055;-77
2023/06/11 03:03:10;;;;;;;12.45;8.95;;;17.50;99.90;;;;;;5087158;28;20039;-78
2023/06/11 03:05:35;;;;;;;10.82;9.10;;;17.50;99.90;;;;;;5081970;28;20036;-76
2023/06/11 03:08:01;;;;;;;12.68;9.38;;;17.40;99.90;;;;;;5099572;28;20040;-78
2023/06/11 03:10:28;;;;;;;10.88;8.80;;;17.40;99.90;;;;;;5099931;28;20036;-78
2023/06/11 03:12:54;;;;;;;11.60;8.55;;;17.40;99.90;;;;;;5097628;28;20044;-77
2023/06/11 03:15:20;;;;;;;11.18;8.57;;;17.40;99.90;;;;;;5105611;28;20073;-77
2023/06/11 03:17:45;;;;;;;12.73;9.43;;;17.30;99.90;;;;;;5103535;28;20043;-76
2023/06/11 03:20:11;;;;;;;10.85;8.77;;;17.30;99.90;;;;;;5097792;28;20047;-77
2023/06/11 03:22:37;;;;;;;16.50;9.30;;;17.50;99.90;;;;;;5098731;28;20036;-78
2023/06/11 03:25:03;;;;;;;11.38;8.95;;;17.20;99.90;;;;;;5109513;28;20047;-78
2023/06/11 03:27:28;;;;;;;16.42;10.25;;;17.20;99.90;;;;;;5113002;28;20040;-78
2023/06/11 03:29:54;;;;;;;11.93;8.55;;;17.20;99.90;;;;;;5112832;28;20131;-77
2023/06/11 03:32:20;;;;;;;19.63;10.00;;;17.20;99.90;;;;;;5109816;28;20118;-78
2023/06/11 03:34:45;;;;;;;10.95;8.68;;;17.20;99.90;;;;;;5098544;28;20578;-76
2023/06/11 03:37:11;;;;;;;15.70;9.48;;;17.20;99.90;;;;;;5097558;28;20047;-77
2023/06/11 03:39:37;;;;;;;12.52;8.55;;;17.20;99.90;;;;;;5112004;27;20040;-76
2023/06/11 03:42:03;;;;;;;17.25;9.98;;;17.20;99.90;;;;;;5127048;27;20124;-77
2023/06/11 03:44:28;;;;;;;14.88;9.77;;;17.10;99.90;;;;;;5103787;28;20054;-79
2023/06/11 03:46:54;;;;;;;15.45;9.35;;;17.20;99.90;;;;;;5099239;28;20450;-78
2023/06/11 03:49:20;;;;;;;15.10;9.23;;;17.20;99.90;;;;;;5107429;28;20050;-76
2023/06/11 03:51:46;;;;;;;13.50;9.32;;;17.20;99.90;;;;;;5102699;28;20048;-77
2023/06/11 03:54:11;;;;;;;16.60;9.82;;;17.10;99.90;;;;;;5108201;28;20032;-77
2023/06/11 03:56:37;;;;;;;13.18;8.57;;;17.10;99.90;;;;;;5113563;28;20112;-77
2023/06/11 03:59:02;;;;;;;14.32;9.70;;;17.10;99.90;;;;;;5097560;28;20055;-77
2023/06/11 04:01:29;;;;;;;16.77;9.18;;;17.10;99.90;;;;;;5109283;28;20115;-78
2023/06/11 04:03:55;;;;;;;17.63;9.43;;;17.10;99.90;;;;;;5084846;28;20492;-77
2023/06/11 04:06:21;;;;;;;13.10;8.50;;;17.10;99.90;;;;;;5080123;28;20095;-77
2023/06/11 04:08:46;;;;;;;17.88;9.93;;;17.10;99.90;;;;;;5104132;27;20044;-78
2023/06/11 04:11:12;;;;;;;17.92;9.70;;;17.10;99.90;;;;;;5107967;28;20036;-78
2023/06/11 04:13:37;;;;;;;15.50;10.70;;;17.10;99.90;;;;;;5111201;28;20175;-78
2023/06/11 04:16:03;;;;;;;13.60;9.82;;;17.20;99.90;;;;;;5105428;28;20047;-77
2023/06/11 04:18:29;;;;;;;14.02;9.43;;;17.20;99.90;;;;;;5121236;27;20040;-78
2023/06/11 04:20:55;;;;;;;14.50;9.65;;;17.20;99.90;;;;;;5105077;28;20101;-77
2023/06/11 04:23:20;;;;;;;12.48;9.80;;;17.20;99.90;;;;;;5116367;28;20488;-78
2023/06/11 04:25:49;;;;;;;12.60;8.95;;;17.30;99.90;;;;;;5101813;28;20512;-76
2023/06/11 04:28:18;;;;;;;12.07;8.95;;;17.30;99.90;;;;;;5109648;27;20511;-78
2023/06/11 04:30:44;;;;;;;18.55;10.07;;;17.40;99.90;;;;;;5096118;28;20043;-78
2023/06/11 04:33:10;;;;;;;13.43;8.68;;;17.30;99.90;;;;;;5089849;28;20043;-77
2023/06/11 04:35:37;;;;;;;17.45;9.48;;;17.40;99.90;;;;;;5099122;28;20485;-78
2023/06/11 04:38:04;;;;;;;19.35;9.65;;;17.40;99.90;;;;;;5108442;28;20039;-76
2023/06/11 04:40:30;;;;;;;11.85;9.43;;;17.40;99.90;;;;;;5064880;28;20052;-77
2023/06/11 04:42:56;;;;;;;16.13;9.02;;;17.50;99.90;;;;;;5097003;28;20044;-79
2023/06/11 04:45:22;;;;;;;13.38;10.07;;;17.40;99.90;;;;;;5097421;28;20048;-78
2023/06/11 04:47:47;;;;;;;16.55;10.07;;;17.50;99.90;;;;;;5097010;28;20055;-77
2023/06/11 04:50:20;;;;;;;15.68;9.40;;;17.60;99.90;;;;;;5078307;28;20093;-76
2023/06/11 04:52:49;;;;;;;13.93;9.30;;;17.70;99.90;;;;;;5079386;28;20048;-79
2023/06/11 04:55:16;;;;;;;14.40;9.55;;;17.80;99.90;;;;;;5104925;28;20044;-78
2023/06/11 04:57:43;;;;;;;11.82;9.18;;;17.80;99.90;;;;;;5105766;28;20044;-77
2023/06/11 05:00:10;;;;;;;12.25;8.95;;;17.90;99.90;;;;;;5102404;28;20089;-77
2023/06/11 05:02:43;;;;;;;16.35;9.38;;;17.90;99.90;;;;;;5097080;28;20031;-79
2023/06/11 05:05:09;;;;;;;13.30;8.90;;;18.00;99.90;;;;;;5111384;28;20057;-78
2023/06/11 05:07:38;;;;;;;11.80;8.52;;;18.00;99.90;;;;;;5096506;28;20499;-77
2023/06/11 05:10:04;;;;;;;14.43;8.88;;;18.20;99.90;;;;;;5107696;28;20085;-77
2023/06/11 05:12:29;;;;;;;15.68;9.60;;;18.30;99.90;;;;;;5073380;28;20044;-78
2023/06/11 05:14:55;;;;;;;16.05;9.40;;;18.30;99.90;;;;;;5098634;28;20538;-78
2023/06/11 05:17:21;;;;;;;10.25;8.70;;;18.40;99.90;;;;;;5101307;28;20055;-79
2023/06/11 05:19:46;;;;;;;16.20;9.23;;;18.50;99.90;;;;;;5069285;28;20016;-77
2023/06/11 05:22:12;;;;;;;13.05;8.85;;;18.60;99.90;;;;;;5114584;28;20067;-76
2023/06/11 05:24:41;;;;;;;14.63;9.45;;;18.70;99.90;;;;;;5114986;27;20047;-77
2023/06/11 05:27:10;;;;;;;13.95;9.10;;;18.80;99.90;;;;;;5096673;28;20386;-77
2023/06/11 05:29:37;;;;;;;11.90;8.77;;;18.90;99.90;;;;;;5112758;28;20032;-77
2023/06/11 05:32:04;;;;;;;12.95;8.73;;;19.00;99.90;;;;;;5099534;28;20066;-78
2023/06/11 05:34:30;;;;;;;14.82;8.90;;;19.10;99.90;;;;;;5094294;28;20040;-78
2023/06/11 05:36:55;;;;;;;10.57;9.45;;;19.20;99.90;;;;;;5104846;28;20071;-77
2023/06/11 05:39:21;;;;;;;13.40;8.32;;;19.30;99.90;;;;;;5104996;28;20044;-78
2023/06/11 05:41:47;;;;;;;14.23;8.63;;;19.40;99.90;;;;;;5110742;28;20040;-77
2023/06/11 05:44:12;;;;;;;10.13;8.52;;;19.50;99.90;;;;;;5102264;28;20469;-78
2023/06/11 05:46:38;;;;;;;11.25;8.25;;;19.70;99.90;;;;;;5082357;28;20055;-77
2023/06/11 05:49:05;;;;;;;15.88;8.40;;;19.80;99.90;;;;;;5094510;28;20089;-77
2023/06/11 05:51:31;;;;;;;10.80;8.63;;;19.90;99.90;;;;;;5094609;28;20059;-77
2023/06/11 05:54:01;;;;;;;11.45;8.55;;;20.00;99.90;;;;;;5080369;28;20442;-76
2023/06/11 05:56:27;;;;;;;13.38;8.15;;;20.30;99.90;;;;;;5116321;28;20096;-77
2023/06/11 05:58:52;;;;;;;11.70;8.65;;;20.50;99.90;;;;;;5105878;28;20039;-75
2023/06/11 06:01:18;;;;;;;12.85;7.63;;;20.70;99.90;;;;;;5104412;28;20050;-78
2023/06/11 06:03:44;;;;;;;11.30;7.85;;;20.90;99.90;;;;;;5088254;28;20044;-77
2023/06/11 06:06:09;;;;;;;13.00;7.68;;;21.10;99.90;;;;;;5066591;28;20113;-76
2023/06/11 06:08:35;;;;;;;13.15;7.93;;;21.30;99.90;;;;;;5121582;28;20032;-77
2023/06/11 06:11:01;;;;;;;13.00;7.47;;;21.40;99.90;;;;;;5096406;28;20048;-75
2023/06/11 06:13:27;;;;;;;9.95;7.60;;;21.60;99.90;;;;;;5098792;28;20055;-75
2023/06/11 06:15:53;;;;;;;9.68;7.47;;;21.80;99.90;;;;;;5086507;28;20036;-76
2023/06/11 06:18:18;;;;;;;18.95;7.82;;;21.80;99.90;;;;;;5095384;28;20047;-76
2023/06/11 06:20:44;;;;;;;12.32;7.15;;;21.90;99.90;;;;;;5097032;28;20036;-76
2023/06/11 06:23:10;;;;;;;10.38;7.80;;;21.90;99.90;;;;;;5109153;28;20508;-76
2023/06/11 06:25:37;;;;;;;13.35;7.40;;;21.90;99.90;;;;;;5102728;28;20077;-77
2023/06/11 06:28:04;;;;;;;11.20;7.82;;;21.90;99.90;;;;;;5104926;28;20050;-79
2023/06/11 06:30:32;;;;;;;14.27;8.75;;;21.90;99.90;;;;;;5114546;28;20044;-77
2023/06/11 06:32:58;;;;;;;12.75;7.85;;;21.90;99.90;;;;;;5099448;28;20056;-76
2023/06/11 06:35:24;;;;;;;12.98;7.65;;;21.90;99.90;;;;;;5111445;28;20036;-77
2023/06/11 06:37:50;;;;;;;12.80;7.40;;;21.90;99.90;;;;;;5114390;28;20118;-75
2023/06/11 06:40:15;;;;;;;11.48;8.40;;;22.00;99.90;;;;;;5085208;28;20043;-77
2023/06/11 06:42:41;;;;;;;12.25;7.93;;;22.00;99.90;;;;;;5117629;28;20058;-76
2023/06/11 06:45:08;;;;;;;9.57;7.22;;;22.00;99.90;;;;;;5082953;28;20051;-77
2023/06/11 06:47:34;;;;;;;12.48;8.32;;;22.10;99.90;;;;;;5099673;28;20084;-76
2023/06/11 06:50:00;;;;;;;10.80;7.38;;;22.20;99.90;;;;;;5129580;27;20032;-77
2023/06/11 06:52:27;;;;;;;11.23;7.70;;;22.20;99.90;;;;;;5092969;28;20036;-76
2023/06/11 06:54:53;;;;;;;16.52;8.77;;;22.30;99.90;;;;;;5078812;28;20043;-77
2023/06/11 06:57:18;;;;;;;15.20;8.20;;;22.40;99.90;;;;;;5062696;28;20104;-76
2023/06/11 06:59:44;;;;;;;9.10;7.20;;;22.50;99.90;;;;;;5099721;28;20119;-76
2023/06/11 07:02:10;;;;;;;11.40;8.27;;;22.50;99.90;;;;;;5098856;28;20388;-80
2023/06/11 07:04:35;;;;;;;10.75;7.10;;;22.70;99.90;;;;;;5092176;28;20525;-76
2023/06/11 07:07:05;;;;;;;15.65;7.90;;;22.60;99.90;;;;;;5124706;27;20046;-76
2023/06/11 07:09:32;;;;;;;11.05;7.88;;;22.70;99.90;;;;;;5108975;28;20115;-78
2023/06/11 07:11:57;;;;;;;10.02;6.93;;;22.80;99.90;;;;;;5079980;28;20099;-77
2023/06/11 07:14:23;;;;;;;14.20;8.20;;;22.90;99.90;;;;;;5117786;28;20071;-77
2023/06/11 07:16:48;;;;;;;11.80;7.43;;;23.00;99.90;;;;;;5103893;28;20048;-76
2023/06/11 07:19:14;;;;;;;12.65;7.90;;;23.10;99.90;;;;;;5099424;28;20127;-77
2023/06/11 07:21:41;;;;;;;10.10;7.40;;;23.10;99.90;;;;;;5112747;28;20035;-77
2023/06/11 07:24:07;;;;;;;9.40;7.70;;;23.20;99.90;;;;;;5119047;28;20099;-78
2023/06/11 07:26:33;;;;;;;12.18;8.35;;;23.40;99.90;;;;;;5118165;28;20071;-77
2023/06/11 07:29:00;;;;;;;11.75;7.50;;;23.40;99.90;;;;;;5103672;28;20506;-76
2023/06/11 07:31:26;;;;;;;9.35;7.15;;;23.50;99.90;;;;;;5102354;28;20053;-77
2023/06/11 07:33:52;;;;;;;11.73;7.38;;;23.50;99.90;;;;;;5093989;28;20073;-78
2023/06/11 07:36:18;;;;;;;12.65;6.75;;;23.70;99.90;;;;;;5112431;28;20047;-78
2023/06/11 07:38:44;;;;;;;12.05;7.40;;;23.80;99.90;;;;;;5112837;28;20036;-78
2023/06/11 07:41:13;;;;;;;11.63;7.43;;;23.90;99.90;;;;;;5108645;28;20154;-79
2023/06/11 07:43:39;;;;;;;12.00;8.65;;;24.00;99.90;;;;;;5096145;28;20044;-78
2023/06/11 07:46:05;;;;;;;11.77;7.47;;;24.10;99.90;;;;;;5112244;28;20039;-78
2023/06/11 07:48:31;;;;;;;9.93;7.55;;;24.20;99.90;;;;;;5086789;28;20036;-78
2023/06/11 07:50:57;;;;;;;11.70;7.93;;;24.30;99.90;;;;;;5115506;28;20179;-78
2023/06/11 07:53:23;;;;;;;10.80;7.13;;;24.40;99.90;;;;;;5095314;28;20106;-79
2023/06/11 07:55:54;;;;;;;12.73;7.50;;;24.60;99.90;;;;;;5105467;28;20375;-77
2023/06/11 07:58:20;;;;;;;12.25;7.50;;;24.60;99.90;;;;;;5098320;28;20044;-78
2023/06/11 08:00:45;;;;;;;14.10;7.45;;;24.80;99.90;;;;;;5125310;27;20131;-78
2023/06/11 08:03:11;;;;;;;12.15;6.80;;;24.90;99.90;;;;;;5101918;27;20043;-78
2023/06/11 08:05:37;;;;;;;8.63;7.50;;;24.90;99.80;;;;;;5093265;28;20047;-77
2023/06/11 08:08:03;;;;;;;10.52;6.95;;;25.00;99.30;;;;;;5114443;28;20056;-77
2023/06/11 08:10:28;;;;;;;9.05;6.72;;;25.00;99.50;;;;;;5099221;28;20130;-77
2023/06/11 08:12:54;;;;;;;13.05;8.35;;;25.00;99.60;;;;;;5113044;27;20043;-79
2023/06/11 08:15:20;;;;;;;8.48;7.25;;;25.20;99.50;;;;;;5111829;28;20053;-77
2023/06/11 08:17:46;;;;;;;14.25;7.43;;;25.30;99.30;;;;;;5082245;28;20043;-78
2023/06/11 08:20:11;;;;;;;7.32;6.38;;;25.40;99.30;;;;;;5099160;28;20051;-79
2023/06/11 08:22:37;;;;;;;13.07;7.13;;;25.50;99.00;;;;;;5074324;28;20140;-79
2023/06/11 08:25:03;;;;;;;13.98;7.22;;;25.70;98.60;;;;;;5099765;28;20595;-78
2023/06/11 08:27:29;;;;;;;9.75;6.75;;;25.70;98.30;;;;;;5094400;28;20129;-79
2023/06/11 08:29:54;;;;;;;12.00;7.82;;;25.80;98.10;;;;;;5112885;28;20045;-77
2023/06/11 08:32:20;;;;;;;10.25;7.47;;;25.90;98.10;;;;;;5074952;28;20126;-77
2023/06/11 08:34:45;;;;;;;10.27;7.20;;;26.00;98.00;;;;;;5105739;28;20050;-77
2023/06/11 08:37:11;;;;;;;9.95;7.32;;;26.00;97.80;;;;;;5116307;28;20122;-79
2023/06/11 08:39:37;;;;;;;8.25;7.00;;;26.10;97.60;;;;;;5105543;28;20374;-76
2023/06/11 08:42:02;;;;;;;9.70;6.68;;;26.20;97.60;;;;;;5080230;28;20127;-78
2023/06/11 08:44:28;;;;;;;8.40;6.50;;;26.30;97.50;;;;;;5089557;28;20039;-78
2023/06/11 08:46:56;;;;;;;10.93;7.13;;;26.40;97.40;;;;;;5098072;28;20036;-79
2023/06/11 08:49:22;;;;;;;10.45;7.05;;;26.50;97.20;;;;;;5114319;28;20040;-77
2023/06/11 08:51:49;;;;;;;12.65;6.68;;;26.60;97.00;;;;;;5104833;28;20066;-75
2023/06/11 08:54:16;;;;;;;10.70;6.60;;;26.80;96.90;;;;;;5101361;28;20095;-78
2023/06/11 08:56:42;;;;;;;12.18;6.80;;;26.90;96.70;;;;;;5114333;28;20051;-78
2023/06/11 08:59:08;;;;;;;13.83;6.83;;;26.90;96.30;;;;;;5101191;28;20493;-78
2023/06/11 09:01:34;;;;;;;10.65;6.30;;;27.10;96.50;;;;;;5106675;28;20304;-78
2023/06/11 09:04:00;;;;;;;11.43;6.78;;;27.20;96.60;;;;;;5081050;28;20386;-77
2023/06/11 09:06:28;;;;;;;8.68;7.13;;;27.40;96.20;;;;;;5111574;28;20047;-78
2023/06/11 09:08:57;;;;;;;;;;;27.40;95.80;;;;;;5090965;28;20056;-78
2023/06/11 09:11:23;;;;;;;12.85;7.22;;;27.50;95.60;;;;;;5104124;28;20397;-77
2023/06/11 09:13:48;;;;;;;10.48;6.38;;;27.60;95.80;;;;;;5112115;28;20048;-78
2023/06/11 09:16:14;;;;;;;9.55;6.75;;;27.70;95.70;;;;;;5117407;28;20051;-78
2023/06/11 09:18:43;;;;;;;9.38;7.10;;;27.90;95.60;;;;;;5073030;28;20039;-77
2023/06/11 09:21:11;;;;;;;10.00;7.18;;;28.00;94.70;;;;;;5116088;28;20044;-79
2023/06/11 09:23:38;;;;;;;7.95;6.75;;;28.00;94.40;;;;;;5110294;28;20406;-77
2023/06/11 09:26:03;;;;;;;9.73;6.20;;;28.10;94.50;;;;;;5088233;28;20127;-78
2023/06/11 09:28:33;;;;;;;8.05;6.40;;;28.10;94.40;;;;;;5098392;28;20081;-78
2023/06/11 09:31:00;;;;;;;11.65;6.57;;;28.30;94.50;;;;;;5118053;28;20044;-77
2023/06/11 09:33:27;;;;;;;10.25;6.30;;;28.40;94.30;;;;;;5102032;28;20094;-77
2023/06/11 09:35:53;;;;;;;9.43;6.53;;;28.50;94.40;;;;;;5105946;28;20050;-78
2023/06/11 09:38:20;;;;;;;6.97;5.90;;;28.60;93.90;;;;;;5114264;28;20039;-79
2023/06/11 09:40:52;;;;;;;9.02;5.70;;;28.70;92.70;;;;;;5113657;28;20044;-78
2023/06/11 09:43:22;;;;;;;11.48;6.05;;;28.80;92.50;;;;;;5111012;27;20040;-77
2023/06/11 09:45:52;;;;;;;11.35;5.95;;;28.80;92.80;;;;;;5100749;28;20036;-77
2023/06/11 09:48:21;;;;;;;13.25;6.25;;;29.00;93.00;;;;;;5095915;28;20051;-79
2023/06/11 09:50:52;;;;;;;8.55;6.45;;;29.10;92.70;;;;;;5109455;28;20573;-79
2023/06/11 09:53:20;;;;;;;8.27;5.90;;;29.10;92.00;;;;;;5114102;28;20043;-78
2023/06/11 09:55:49;;;;;;;8.75;5.85;;;29.20;92.20;;;;;;5097645;28;20095;-79
2023/06/11 09:58:17;;;;;;;11.65;5.72;;;29.20;92.10;;;;;;5105741;28;21688;-78
2023/06/11 10:00:52;;;;;;;7.78;5.65;;;29.40;92.20;;;;;;5088268;28;20506;-79
2023/06/11 10:03:18;;;;;;;8.07;6.13;;;29.60;91.60;;;;;;5099302;28;20077;-79
2023/06/11 10:05:43;;;;;;;12.48;6.35;;;29.60;91.20;;;;;;5119576;28;20118;-78
2023/06/11 10:08:17;;;;;;;13.13;5.30;;;29.70;91.20;;;;;;5117605;27;20082;-78
2023/06/11 10:10:47;;;;;;;9.38;6.20;;;29.80;91.00;;;;;;5110290;27;20024;-78
2023/06/11 10:13:27;;;;;;;9.50;5.93;;;30.00;90.90;;;;;;5096692;28;20122;-77
2023/06/11 10:15:53;;;;;;;6.72;5.68;;;30.10;90.90;;;;;;5106947;27;20063;-77
2023/06/11 10:18:23;;;;;;;9.80;5.88;;;30.30;90.90;;;;;;5123174;28;20048;-79
2023/06/11 10:20:59;;;;;;;8.50;6.00;;;30.50;90.50;;;;;;5103200;28;20089;-77
2023/06/11 10:23:37;;;;;;;8.48;5.68;;;30.50;89.40;;;;;;5107704;27;20370;-78
2023/06/11 10:26:04;;;;;;;12.57;6.85;;;30.50;88.40;;;;;;5115367;28;20035;-77
2023/06/11 10:28:48;;;;;;;11.13;5.93;;;30.50;88.60;;;;;;5102511;28;20449;-77
2023/06/11 10:31:36;;;;;;;9.52;5.95;;;30.50;87.10;;;;;;5103530;28;20612;-78
2023/06/11 10:34:05;;;;;;;9.73;5.40;;;30.60;86.70;;;;;;5115331;27;20050;-77
2023/06/11 10:36:35;;;;;;;7.85;5.70;;;30.70;87.60;;;;;;5114132;28;20044;-78
2023/06/11 10:39:23;;;;;;;10.93;6.00;;;30.80;86.50;;;;;;5103934;28;20047;-77
2023/06/11 10:41:59;;;;;;;8.63;5.20;;;30.90;85.00;;;;;;5114453;27;20039;-77
2023/06/11 10:44:25;;;;;;;6.75;5.38;;;30.90;85.70;;;;;;5108630;27;20058;-78
2023/06/11 10:46:52;;;;;;;11.45;5.47;;;31.00;84.90;;;;;;5118428;27;20036;-78
2023/06/11 10:49:28;;;;;;;8.80;5.65;;;31.10;84.40;;;;;;5113826;28;20521;-77
2023/06/11 10:51:54;;;;;;;6.65;5.60;;;31.10;82.80;;;;;;5122601;27;20056;-77
2023/06/11 10:54:27;;;;;;;8.70;5.40;;;31.20;82.90;;;;;;5122366;28;20051;-79
2023/06/11 10:56:54;;;;;;;12.27;5.80;;;31.20;83.30;;;;;;5084938;28;20047;-78
2023/06/11 10:59:20;;;;;;;10.38;5.40;;;31.40;82.20;;;;;;5109096;28;20063;-77
2023/06/11 11:01:46;;;;;;;8.85;5.40;;;31.50;82.00;;;;;;5107047;28;20048;-79
2023/06/11 11:04:12;;;;;;;8.85;5.03;;;31.60;81.00;;;;;;5117407;27;20043;-77
2023/06/11 11:06:39;;;;;;;11.77;5.40;;;31.70;81.00;;;;;;5113492;27;20162;-78
2023/06/11 11:09:05;;;;;;;9.75;5.35;;;31.80;80.10;;;;;;5067125;28;20079;-77
2023/06/11 11:11:33;;;;;;;6.60;5.03;;;31.80;78.20;;;;;;5069965;28;20095;-78
2023/06/11 11:14:03;;;;;;;10.02;5.10;;;31.70;77.20;;;;;;5084870;28;20571;-79
2023/06/11 11:16:29;;;;;;;13.48;5.30;;;31.90;76.90;;;;;;5083242;28;20039;-78
2023/06/11 11:18:54;;;;;;;7.90;5.00;;;31.90;76.00;;;;;;5113141;28;20559;-77
2023/06/11 11:21:30;;;;;;;10.45;4.82;;;32.00;75.80;;;;;;5102308;28;20083;-78
2023/06/11 11:23:56;;;;;;;6.78;4.50;;;32.10;75.20;;;;;;5125697;27;20055;-77
2023/06/11 11:26:22;;;;;;;10.43;4.30;;;32.20;74.10;;;;;;5107929;27;20040;-79
2023/06/11 11:28:48;;;;;;;8.60;4.30;;;32.30;73.50;;;;;;5125060;27;20044;-78
2023/06/11 11:31:17;;;;;;;11.18;5.05;;;32.30;73.20;;;;;;5101367;28;20047;-77
2023/06/11 11:33:45;;;;;;;10.20;4.97;;;32.40;72.70;;;;;;5103964;28;20040;-78
2023/06/11 11:36:11;;;;;;;7.90;4.70;;;32.60;72.90;;;;;;5107355;28;20075;-78
2023/06/11 11:38:37;;;;;;;7.57;4.40;;;32.70;71.70;;;;;;5111253;28;20047;-78
2023/06/11 11:41:08;;;;;;;6.30;4.15;;;32.80;69.60;;;;;;5083234;28;20040;-78
2023/06/11 11:43:40;;;;;;;9.77;4.45;;;32.70;69.30;;;;;;5094495;28;20051;-78
2023/06/11 11:46:24;;;;;;;5.97;4.20;;;32.90;68.40;;;;;;5109152;28;20116;-76
2023/06/11 11:48:54;;;;;;;7.30;5.15;;;32.90;67.90;;;;;;5112377;28;20093;-77
2023/06/11 11:51:20;;;;;;;13.05;4.63;;;33.00;68.80;;;;;;5074987;28;20501;-75
2023/06/11 11:53:46;;;;;;;9.27;4.35;;;33.00;66.80;;;;;;5104532;28;20019;-79
2023/06/11 11:56:12;;;;;;;5.77;4.43;;;32.80;66.50;;;;;;5114877;28;20046;-77
2023/06/11 11:58:42;;;;;;;6.63;4.55;;;32.80;67.70;;;;;;5114588;27;20523;-77
2023/06/11 12:01:21;;;;;;;7.90;4.97;;;33.00;68.70;;;;;;5091853;28;20078;-78
2023/06/11 12:04:06;;;;;;;9.65;4.30;;;33.00;65.10;;;;;;5097764;28;20035;-76
2023/06/11 12:06:32;;;;;;;11.30;4.80;;;33.00;65.00;;;;;;5090083;27;20043;-76
2023/06/11 12:08:58;;;;;;;9.60;4.70;;;33.00;66.10;;;;;;5101518;27;20462;-76
2023/06/11 12:11:24;;;;;;;9.47;4.90;;;33.30;66.40;;;;;;5092499;28;20074;-78
2023/06/11 12:13:49;;;;;;;10.40;5.13;;;33.30;65.90;;;;;;5105557;28;20085;-77
2023/06/11 12:16:15;;;;;;;7.97;5.00;;;33.40;65.50;;;;;;5115521;27;20043;-78
2023/06/11 12:18:41;;;;;;;10.03;5.17;;;33.30;65.30;;;;;;5118560;28;20040;-77
2023/06/11 12:21:07;;;;;;;8.40;4.60;;;33.20;64.90;;;;;;5127851;27;20043;-78
2023/06/11 12:23:33;;;;;;;6.47;4.68;;;33.10;64.70;;;;;;5095280;28;20077;-78
2023/06/11 12:26:01;;;;;;;7.25;5.05;;;33.10;63.90;;;;;;5097546;28;20531;-77
2023/06/11 12:28:27;;;;;;;8.60;5.00;;;33.10;64.60;;;;;;5114880;28;20516;-77
2023/06/11 12:30:53;;;;;;;6.67;5.03;;;33.20;65.00;;;;;;5084502;28;20040;-76
2023/06/11 12:33:18;;;;;;;7.00;4.93;;;33.20;63.80;;;;;;5113777;28;20049;-77
2023/06/11 12:35:44;;;;;;;9.03;4.70;;;33.20;63.90;;;;;;5110600;28;20121;-77
2023/06/11 12:38:10;;;;;;;8.67;4.90;;;33.20;64.10;;;;;;5095950;28;20044;-75
2023/06/11 12:40:37;;;;;;;11.52;5.40;;;33.20;63.30;;;;;;5109162;28;20042;-76